createdAt,value
2019-01-26T00:00:37.786Z,32.13
2019-01-26T00:03:09.233Z,35.10
2019-01-26T00:05:40.522Z,38.13
2019-01-26T00:08:11.726Z,30.90
2019-01-26T00:10:43.010Z,32.40
2019-01-26T00:13:14.446Z,32.50
2019-01-26T00:15:45.784Z,35.77
2019-01-26T00:18:16.818Z,32.13
2019-01-26T00:20:48.606Z,31.27
2019-01-26T00:23:19.630Z,28.67
2019-01-26T00:25:50.849Z,30.93
2019-01-26T00:28:22.049Z,33.63
2019-01-26T00:30:53.415Z,30.63
2019-01-26T00:33:24.367Z,27.90
2019-01-26T00:35:55.553Z,30.87
2019-01-26T00:38:26.755Z,34.07
2019-01-26T00:40:57.961Z,32.63
2019-01-26T00:43:28.982Z,26.73
2019-01-26T00:46:00.190Z,34.93
2019-01-26T00:48:31.458Z,28.30
2019-01-26T00:51:03.047Z,30.03
2019-01-26T00:53:34.146Z,30.87
2019-01-26T00:56:05.555Z,31.70
2019-01-26T00:58:37.086Z,31.93
2019-01-26T01:01:08.127Z,33.23
2019-01-26T01:03:39.457Z,28.00
2019-01-26T01:06:10.854Z,28.47
2019-01-26T01:08:42.121Z,28.63
2019-01-26T01:11:13.235Z,27.47
2019-01-26T01:13:44.442Z,31.47
2019-01-26T01:16:15.901Z,28.23
2019-01-26T01:18:47.190Z,28.00
2019-01-26T01:21:18.530Z,23.50
2019-01-26T01:23:49.550Z,28.43
2019-01-26T01:26:20.982Z,28.17
2019-01-26T01:28:51.994Z,27.63
2019-01-26T01:31:23.355Z,35.97
2019-01-26T01:33:54.518Z,26.77
2019-01-26T01:36:25.874Z,23.33
2019-01-26T01:38:57.321Z,31.93
2019-01-26T01:41:28.609Z,27.57
2019-01-26T01:43:59.808Z,32.40
2019-01-26T01:46:32.294Z,28.53
2019-01-26T01:49:03.389Z,31.33
2019-01-26T01:51:34.674Z,26.37
2019-01-26T01:54:05.939Z,33.20
2019-01-26T01:56:36.909Z,23.73
2019-01-26T01:59:08.121Z,29.63
2019-01-26T02:01:39.397Z,31.30
2019-01-26T02:04:10.664Z,27.50
2019-01-26T02:06:42.315Z,28.20
2019-01-26T02:09:13.321Z,29.20
2019-01-26T02:11:44.358Z,34.67
2019-01-26T02:14:15.946Z,27.33
2019-01-26T02:16:50.252Z,29.40
2019-01-26T02:19:20.199Z,28.93
2019-01-26T02:21:51.825Z,31.30
2019-01-26T02:24:23.597Z,37.03
2019-01-26T02:26:54.814Z,25.33
2019-01-26T02:29:26.263Z,23.50
2019-01-26T02:31:57.394Z,26.67
2019-01-26T02:34:28.582Z,27.80
2019-01-26T02:36:59.823Z,32.77
2019-01-26T02:39:31.033Z,30.47
2019-01-26T02:42:02.325Z,25.27
2019-01-26T02:44:33.531Z,35.07
2019-01-26T02:47:05.001Z,28.60
2019-01-26T02:49:36.191Z,32.63
2019-01-26T02:52:07.579Z,33.27
2019-01-26T02:54:38.779Z,33.53
2019-01-26T02:57:10.076Z,37.13
2019-01-26T02:59:41.282Z,34.17
2019-01-26T03:02:12.558Z,36.50
2019-01-26T03:04:43.908Z,32.17
2019-01-26T03:07:15.298Z,37.93
2019-01-26T03:09:47.335Z,36.53
2019-01-26T03:12:18.571Z,35.90
2019-01-26T03:14:50.139Z,37.70
2019-01-26T03:17:21.471Z,34.70
2019-01-26T03:19:52.671Z,36.17
2019-01-26T03:22:23.884Z,35.30
2019-01-26T03:24:55.087Z,33.03
2019-01-26T03:27:26.382Z,35.40
2019-01-26T03:29:57.659Z,39.03
2019-01-26T03:32:28.635Z,36.40
2019-01-26T03:34:59.587Z,40.27
2019-01-26T03:37:30.876Z,35.97
2019-01-26T03:40:02.074Z,44.97
2019-01-26T03:42:33.109Z,39.90
2019-01-26T03:45:05.381Z,42.43
2019-01-26T03:47:36.995Z,43.17
2019-01-26T03:50:09.485Z,37.73
2019-01-26T03:52:40.619Z,38.57
2019-01-26T03:55:13.751Z,31.37
2019-01-26T03:57:45.112Z,44.90
2019-01-26T04:00:19.603Z,41.63
2019-01-26T04:02:50.649Z,38.83
2019-01-26T04:05:22.011Z,36.83
2019-01-26T04:07:53.046Z,38.83
2019-01-26T04:10:24.072Z,36.00
2019-01-26T04:12:55.605Z,33.07
2019-01-26T04:15:26.830Z,33.50
2019-01-26T04:17:58.146Z,37.20
2019-01-26T04:20:29.706Z,41.63
2019-01-26T04:23:01.282Z,35.63
2019-01-26T04:25:32.488Z,34.73
2019-01-26T04:28:03.590Z,34.63
2019-01-26T04:30:34.934Z,33.53
2019-01-26T04:33:06.238Z,32.67
2019-01-26T04:35:37.523Z,38.10
2019-01-26T04:38:08.565Z,28.93
2019-01-26T04:40:39.773Z,30.33
2019-01-26T04:43:11.175Z,36.57
2019-01-26T04:45:42.194Z,33.23
2019-01-26T04:48:13.478Z,34.27
2019-01-26T04:50:44.822Z,33.87
2019-01-26T04:53:16.038Z,30.87
2019-01-26T04:55:47.241Z,28.67
2019-01-26T04:58:18.219Z,28.13
2019-01-26T05:00:49.242Z,27.13
2019-01-26T05:03:20.449Z,28.80
2019-01-26T05:05:51.687Z,29.23
2019-01-26T05:08:22.994Z,31.67
2019-01-26T05:10:53.949Z,29.13
2019-01-26T05:13:25.247Z,25.60
2019-01-26T05:15:56.534Z,23.73
2019-01-26T05:18:27.826Z,26.53
2019-01-26T05:20:59.031Z,24.37
2019-01-26T05:23:29.997Z,24.43
2019-01-26T05:26:01.502Z,25.63
2019-01-26T05:28:32.731Z,33.10
2019-01-26T05:31:04.078Z,25.23
2019-01-26T05:33:35.309Z,22.73
2019-01-26T05:36:06.578Z,24.47
2019-01-26T05:38:37.786Z,24.10
2019-01-26T05:41:09.233Z,31.93
2019-01-26T05:43:40.438Z,26.97
2019-01-26T05:46:11.384Z,25.47
2019-01-26T05:48:42.598Z,22.13
2019-01-26T05:51:13.618Z,24.60
2019-01-26T05:53:44.904Z,25.17
2019-01-26T05:56:16.112Z,23.70
2019-01-26T05:58:47.330Z,19.50
2019-01-26T06:01:18.534Z,25.00
2019-01-26T06:03:49.901Z,22.27
2019-01-26T06:06:20.850Z,18.20
2019-01-26T06:08:51.821Z,25.60
2019-01-26T06:11:23.034Z,21.57
2019-01-26T06:13:53.998Z,21.27
2019-01-26T06:16:25.314Z,20.87
2019-01-26T06:18:56.526Z,22.10
2019-01-26T06:21:27.805Z,20.97
2019-01-26T06:23:59.167Z,25.57
2019-01-26T06:26:30.359Z,24.47
2019-01-26T06:29:01.319Z,25.67
2019-01-26T06:31:32.338Z,23.10
2019-01-26T06:34:03.623Z,21.23
2019-01-26T06:36:34.911Z,20.20
2019-01-26T06:39:07.641Z,27.67
2019-01-26T06:41:38.929Z,24.83
2019-01-26T06:44:10.154Z,23.00
2019-01-26T06:46:41.507Z,23.40
2019-01-26T06:49:12.807Z,21.93
2019-01-26T06:51:53.833Z,20.10
2019-01-26T06:54:25.404Z,17.00
2019-01-26T06:56:56.438Z,20.07
2019-01-26T06:59:27.390Z,19.53
2019-01-26T07:01:58.799Z,21.90
2019-01-26T07:04:44.921Z,19.43
2019-01-26T07:07:18.449Z,19.87
2019-01-26T07:09:49.694Z,17.53
2019-01-26T07:12:20.968Z,25.63
2019-01-26T07:14:52.174Z,22.97
2019-01-26T07:17:23.876Z,22.70
2019-01-26T07:19:54.830Z,17.87
2019-01-26T07:22:26.355Z,18.93
2019-01-26T07:24:57.630Z,21.77
2019-01-26T07:27:28.822Z,15.07
2019-01-26T07:29:59.783Z,19.80
2019-01-26T07:32:30.722Z,17.23
2019-01-26T07:35:01.917Z,19.20
2019-01-26T07:37:33.558Z,21.27
2019-01-26T07:40:06.279Z,20.40
2019-01-26T07:42:37.487Z,23.83
2019-01-26T07:45:10.304Z,19.37
2019-01-26T07:47:41.654Z,23.70
2019-01-26T07:50:16.685Z,18.70
2019-01-26T07:52:48.123Z,17.40
2019-01-26T07:55:19.233Z,18.10
2019-01-26T07:57:50.510Z,21.83
2019-01-26T08:00:23.834Z,15.27
2019-01-26T08:02:55.171Z,20.93
2019-01-26T08:05:27.102Z,18.27
2019-01-26T08:07:58.346Z,15.43
2019-01-26T08:10:29.645Z,22.50
2019-01-26T08:13:00.975Z,17.20
2019-01-26T08:15:36.904Z,17.10
2019-01-26T08:18:09.507Z,18.17
2019-01-26T08:20:40.790Z,15.83
2019-01-26T08:23:12.065Z,17.23
2019-01-26T08:25:44.397Z,12.80
2019-01-26T08:28:15.581Z,13.03
2019-01-26T08:30:47.818Z,15.80
2019-01-26T08:33:19.078Z,19.63
2019-01-26T08:35:50.309Z,18.00
2019-01-26T08:38:23.067Z,17.87
2019-01-26T08:40:54.490Z,15.87
2019-01-26T08:43:25.457Z,13.47
2019-01-26T08:45:56.499Z,18.23
2019-01-26T08:48:31.272Z,15.23
2019-01-26T08:51:00.734Z,17.77
2019-01-26T08:53:32.318Z,16.40
2019-01-26T08:56:03.539Z,17.17
2019-01-26T08:58:34.810Z,19.20
2019-01-26T09:01:05.935Z,18.73
2019-01-26T09:03:59.827Z,16.00
2019-01-26T09:06:46.234Z,14.23
2019-01-26T09:09:17.586Z,17.33
2019-01-26T09:11:49.414Z,18.57
2019-01-26T09:14:20.444Z,18.43
2019-01-26T09:16:51.862Z,15.40
2019-01-26T09:19:23.166Z,16.43
2019-01-26T09:21:54.134Z,18.03
2019-01-26T09:24:25.730Z,13.20
2019-01-26T09:26:57.334Z,16.67
2019-01-26T09:29:30.015Z,18.60
2019-01-26T09:32:01.365Z,17.87
2019-01-26T09:34:32.561Z,18.83
2019-01-26T09:37:06.183Z,15.67
2019-01-26T09:39:37.591Z,16.83
2019-01-26T09:42:08.870Z,17.43
2019-01-26T09:44:40.199Z,18.67
2019-01-26T09:47:12.174Z,22.97
2019-01-26T09:49:43.458Z,24.70
2019-01-26T09:52:14.421Z,17.67
2019-01-26T09:54:45.765Z,25.40
2019-01-26T09:57:17.067Z,22.83
2019-01-26T09:59:48.366Z,22.37
2019-01-26T10:02:20.677Z,28.47
2019-01-26T10:04:51.946Z,23.90
2019-01-26T10:07:23.159Z,29.60
2019-01-26T10:09:59.282Z,28.57
2019-01-26T10:12:32.512Z,26.60
2019-01-26T10:15:03.801Z,26.63
2019-01-26T10:17:35.010Z,22.67
2019-01-26T10:20:09.370Z,24.57
2019-01-26T10:22:40.664Z,25.83
2019-01-26T10:25:12.978Z,20.10
2019-01-26T10:27:44.209Z,25.20
2019-01-26T10:30:19.667Z,21.90
2019-01-26T10:32:50.959Z,26.63
2019-01-26T10:35:23.822Z,22.40
2019-01-26T10:37:55.181Z,20.67
2019-01-26T10:40:45.738Z,30.73
2019-01-26T10:43:18.188Z,21.20
2019-01-26T10:45:49.398Z,23.30
2019-01-26T10:48:20.942Z,22.37
2019-01-26T10:50:51.897Z,20.60
2019-01-26T10:53:23.210Z,20.40
2019-01-26T10:55:54.482Z,20.67
2019-01-26T10:58:25.957Z,20.00
2019-01-26T11:00:57.190Z,25.53
2019-01-26T11:03:28.466Z,19.73
2019-01-26T11:06:00.058Z,18.20
2019-01-26T11:08:31.127Z,23.33
2019-01-26T11:11:02.080Z,15.83
2019-01-26T11:13:33.552Z,18.47
2019-01-26T11:16:05.214Z,22.17
2019-01-26T11:18:36.983Z,17.30
2019-01-26T11:21:08.458Z,19.87
2019-01-26T11:23:41.094Z,18.07
2019-01-26T11:26:12.442Z,22.23
2019-01-26T11:28:43.670Z,18.00
2019-01-26T11:31:15.333Z,17.07
2019-01-26T11:33:46.625Z,16.87
2019-01-26T11:36:17.820Z,21.33
2019-01-26T11:38:49.118Z,21.27
2019-01-26T11:41:20.459Z,24.20
2019-01-26T11:43:51.627Z,22.80
2019-01-26T11:46:46.185Z,18.77
2019-01-26T11:49:18.130Z,19.07
2019-01-26T11:52:09.093Z,24.00
2019-01-26T11:54:57.761Z,19.27
2019-01-26T11:57:32.003Z,19.25
2019-01-26T12:00:22.439Z,21.13
2019-01-26T12:03:18.710Z,20.90
2019-01-26T12:05:57.562Z,16.63
2019-01-26T12:08:28.772Z,17.10
2019-01-26T12:10:59.757Z,17.10
2019-01-26T12:13:30.973Z,23.77
2019-01-26T12:16:02.339Z,22.93
2019-01-26T12:18:33.547Z,15.40
2019-01-26T12:21:04.894Z,19.43
2019-01-26T12:23:35.873Z,15.93
2019-01-26T12:26:07.483Z,19.77
2019-01-26T12:28:40.037Z,20.27
2019-01-26T12:31:11.330Z,15.57
2019-01-26T12:33:42.550Z,20.43
2019-01-26T12:36:14.203Z,20.53
2019-01-26T12:38:45.683Z,20.93
2019-01-26T12:41:17.198Z,21.13
2019-01-26T12:43:48.486Z,20.10
2019-01-26T12:46:19.438Z,24.07
2019-01-26T12:48:50.534Z,21.73
2019-01-26T12:51:21.586Z,25.27
2019-01-26T12:53:52.585Z,20.60
2019-01-26T12:56:23.890Z,19.57
2019-01-26T12:58:55.091Z,25.93
2019-01-26T13:01:26.576Z,21.87
2019-01-26T13:03:57.761Z,28.23
2019-01-26T13:06:28.809Z,26.77
2019-01-26T13:09:01.146Z,24.60
2019-01-26T13:11:33.845Z,27.33
2019-01-26T13:14:05.643Z,22.83
2019-01-26T13:16:36.978Z,20.93
2019-01-26T13:19:08.350Z,25.13
2019-01-26T13:21:39.405Z,22.53
2019-01-26T13:24:11.079Z,22.47
2019-01-26T13:26:42.429Z,20.77
2019-01-26T13:29:16.304Z,21.80
2019-01-26T13:31:47.259Z,24.97
2019-01-26T13:34:18.318Z,19.87
2019-01-26T13:36:49.650Z,19.93
2019-01-26T13:39:20.875Z,20.60
2019-01-26T13:41:51.830Z,21.97
2019-01-26T13:44:23.027Z,25.13
2019-01-26T13:46:54.322Z,17.10
2019-01-26T13:49:25.530Z,18.17
2019-01-26T13:51:56.845Z,21.13
2019-01-26T13:54:27.965Z,22.63
2019-01-26T13:56:59.414Z,15.00
2019-01-26T13:59:31.362Z,18.13
2019-01-26T14:02:02.482Z,16.47
2019-01-26T14:04:33.563Z,15.87
2019-01-26T14:07:04.727Z,15.40
2019-01-26T14:09:36.726Z,15.97
2019-01-26T14:12:09.726Z,13.67
2019-01-26T14:14:40.759Z,12.07
2019-01-26T14:17:12.979Z,10.20
2019-01-26T14:19:51.063Z,11.23
2019-01-26T14:22:19.161Z,13.13
2019-01-26T14:24:51.637Z,11.30
2019-01-26T14:27:22.905Z,11.90
2019-01-26T14:29:54.178Z,11.17
2019-01-26T14:32:25.390Z,8.40
2019-01-26T14:34:57.002Z,6.60
2019-01-26T14:37:28.023Z,6.30
2019-01-26T14:39:59.233Z,5.63
2019-01-26T14:42:30.266Z,6.33
2019-01-26T14:45:01.471Z,6.60
2019-01-26T14:47:33.531Z,7.50
2019-01-26T14:50:05.851Z,5.87
2019-01-26T14:52:37.056Z,5.30
2019-01-26T14:55:10.698Z,4.37
2019-01-26T14:57:41.743Z,5.13
2019-01-26T15:00:17.006Z,4.80
2019-01-26T15:02:48.434Z,4.33
2019-01-26T15:05:19.799Z,6.60
2019-01-26T15:07:51.065Z,3.80
2019-01-26T15:10:22.390Z,6.10
2019-01-26T15:12:54.002Z,9.13
2019-01-26T15:15:25.557Z,5.20
2019-01-26T15:17:56.902Z,7.37
2019-01-26T15:20:30.313Z,7.50
2019-01-26T15:23:01.603Z,3.90
2019-01-26T15:25:34.058Z,6.43
2019-01-26T15:28:06.422Z,6.03
2019-01-26T15:30:42.590Z,4.77
2019-01-26T15:33:14.526Z,5.63
2019-01-26T15:35:45.837Z,3.83
2019-01-26T15:38:17.434Z,4.73
2019-01-26T15:40:48.910Z,4.13
2019-01-26T15:43:19.952Z,5.60
2019-01-26T15:45:51.326Z,6.33
2019-01-26T15:48:22.378Z,5.27
2019-01-26T15:50:53.922Z,4.53
2019-01-26T15:53:25.274Z,4.97
2019-01-26T15:55:56.214Z,5.93
2019-01-26T15:58:27.426Z,7.03
2019-01-26T16:00:58.802Z,8.53
2019-01-26T16:03:29.852Z,5.97
2019-01-26T16:06:01.474Z,6.70
2019-01-26T16:08:32.774Z,6.73
2019-01-26T16:11:04.083Z,4.63
2019-01-26T16:13:35.638Z,4.73
2019-01-26T16:16:07.505Z,4.40
2019-01-26T16:18:38.710Z,8.17
2019-01-26T16:21:09.896Z,6.00
2019-01-26T16:23:40.951Z,7.50
2019-01-26T16:26:13.198Z,6.40
2019-01-26T16:28:44.478Z,6.63
2019-01-26T16:31:15.663Z,8.30
2019-01-26T16:33:46.867Z,5.27
2019-01-26T16:36:18.126Z,10.40
2019-01-26T16:38:49.707Z,5.23
2019-01-26T16:41:20.888Z,6.20
2019-01-26T16:43:52.272Z,6.00
2019-01-26T16:46:23.651Z,9.70
2019-01-26T16:48:54.969Z,7.33
2019-01-26T16:51:26.290Z,5.77
2019-01-26T16:53:57.558Z,4.97
2019-01-26T16:56:28.763Z,5.30
2019-01-26T16:58:59.967Z,5.30
2019-01-26T17:01:31.262Z,7.60
2019-01-26T17:04:02.217Z,4.73
2019-01-26T17:06:33.482Z,4.90
2019-01-26T17:09:08.203Z,4.37
2019-01-26T17:11:39.209Z,6.57
2019-01-26T17:14:11.087Z,5.47
2019-01-26T17:16:42.994Z,5.10
2019-01-26T17:19:14.263Z,4.17
2019-01-26T17:21:45.321Z,5.23
2019-01-26T17:24:16.530Z,6.43
2019-01-26T17:26:52.694Z,5.87
2019-01-26T17:29:20.477Z,4.23
2019-01-26T17:31:51.521Z,6.20
2019-01-26T17:34:23.233Z,5.33
2019-01-26T17:36:54.638Z,6.30
2019-01-26T17:39:25.746Z,5.67
2019-01-26T17:41:56.811Z,8.67
2019-01-26T17:44:27.865Z,8.10
2019-01-26T17:46:58.841Z,7.07
2019-01-26T17:49:29.987Z,8.60
2019-01-26T17:52:01.170Z,7.60
2019-01-26T17:54:32.465Z,5.80
2019-01-26T17:57:03.886Z,10.10
2019-01-26T17:59:36.169Z,9.73
2019-01-26T18:02:07.535Z,6.77
2019-01-26T18:04:38.970Z,8.27
2019-01-26T18:07:10.175Z,8.90
2019-01-26T18:09:42.050Z,8.90
2019-01-26T18:12:13.330Z,8.77
2019-01-26T18:14:44.710Z,7.13
2019-01-26T18:17:15.774Z,8.80
2019-01-26T18:19:47.070Z,7.50
2019-01-26T18:22:19.178Z,7.33
2019-01-26T18:24:50.380Z,6.70
2019-01-26T18:27:21.740Z,8.23
2019-01-26T18:29:55.663Z,8.00
2019-01-26T18:32:31.243Z,6.80
2019-01-26T18:35:02.198Z,8.10
2019-01-26T18:37:33.653Z,7.83
2019-01-26T18:40:06.558Z,9.50
2019-01-26T18:42:37.502Z,9.43
2019-01-26T18:45:10.522Z,11.33
2019-01-26T18:47:41.787Z,12.20
2019-01-26T18:50:16.066Z,12.87
2019-01-26T18:52:48.384Z,17.77
2019-01-26T18:55:19.513Z,17.57
2019-01-26T18:57:50.803Z,21.43
2019-01-26T19:00:30.267Z,20.17
2019-01-26T19:03:22.898Z,24.27
2019-01-26T19:05:55.922Z,21.67
2019-01-26T19:08:27.074Z,20.30
2019-01-26T19:10:58.131Z,22.93
2019-01-26T19:13:29.142Z,20.73
2019-01-26T19:16:00.281Z,23.93
2019-01-26T19:18:31.575Z,25.73
2019-01-26T19:21:03.518Z,25.73
2019-01-26T19:23:36.087Z,23.23
2019-01-26T19:26:07.684Z,24.90
2019-01-26T19:28:38.970Z,24.70
2019-01-26T19:31:10.719Z,24.03
2019-01-26T19:33:42.150Z,24.17
2019-01-26T19:36:13.526Z,24.63
2019-01-26T19:38:44.730Z,21.30
2019-01-26T19:41:16.014Z,20.90
2019-01-26T19:43:48.193Z,21.83
2019-01-26T19:46:19.318Z,22.83
2019-01-26T19:48:50.590Z,23.17
2019-01-26T19:51:21.634Z,26.17
2019-01-26T19:53:52.822Z,20.27
2019-01-26T19:56:24.041Z,27.30
2019-01-26T19:58:56.522Z,32.20
2019-01-26T20:01:28.059Z,19.43
2019-01-26T20:03:59.447Z,19.67
2019-01-26T20:06:34.814Z,19.37
2019-01-26T20:09:09.464Z,15.53
2019-01-26T20:11:41.009Z,17.03
2019-01-26T20:14:12.206Z,15.87
2019-01-26T20:16:45.625Z,14.03
2019-01-26T20:19:16.589Z,17.53
2019-01-26T20:21:48.582Z,13.37
2019-01-26T20:24:19.690Z,15.30
2019-01-26T20:27:02.228Z,16.03
2019-01-26T20:29:34.606Z,13.47
2019-01-26T20:32:08.080Z,12.67
2019-01-26T20:34:39.301Z,11.53
2019-01-26T20:37:10.258Z,12.67
2019-01-26T20:39:41.223Z,13.63
2019-01-26T20:42:12.527Z,12.60
2019-01-26T20:44:43.791Z,12.57
2019-01-26T20:47:15.155Z,15.07
2019-01-26T20:49:46.434Z,13.27
2019-01-26T20:52:17.979Z,14.10
2019-01-26T20:54:49.019Z,15.20
2019-01-26T20:57:19.978Z,14.53
2019-01-26T20:59:51.038Z,12.37
2019-01-26T21:02:22.254Z,14.00
2019-01-26T21:04:53.454Z,13.80
2019-01-26T21:07:25.870Z,14.60
2019-01-26T21:09:57.396Z,13.43
2019-01-26T21:12:28.955Z,15.33
2019-01-26T21:15:04.627Z,14.67
2019-01-26T21:17:33.554Z,14.07
2019-01-26T21:20:05.327Z,14.23
2019-01-26T21:22:36.536Z,15.43
2019-01-26T21:25:09.446Z,14.43
2019-01-26T21:27:41.651Z,14.33
2019-01-26T21:30:15.946Z,16.83
2019-01-26T21:32:47.074Z,17.23
2019-01-26T21:35:18.169Z,14.60
2019-01-26T21:37:49.791Z,15.57
2019-01-26T21:40:28.693Z,14.40
2019-01-26T21:43:00.766Z,13.73
2019-01-26T21:45:31.966Z,12.77
2019-01-26T21:48:03.266Z,13.70
2019-01-26T21:50:34.541Z,14.63
2019-01-26T21:53:05.998Z,12.33
2019-01-26T21:55:37.278Z,13.17
2019-01-26T21:58:08.713Z,13.07
2019-01-26T22:00:40.002Z,13.37
2019-01-26T22:03:11.322Z,13.10
2019-01-26T22:05:42.418Z,14.67
2019-01-26T22:08:13.454Z,15.03
2019-01-26T22:10:44.804Z,13.13
2019-01-26T22:13:15.974Z,20.10
2019-01-26T22:15:47.597Z,14.73
2019-01-26T22:18:19.163Z,15.33
2019-01-26T22:20:50.447Z,13.77
2019-01-26T22:23:21.427Z,14.17
2019-01-26T22:25:52.449Z,14.80
2019-01-26T22:28:23.994Z,13.90
2019-01-26T22:30:55.262Z,17.60
2019-01-26T22:33:26.866Z,14.53
2019-01-26T22:35:58.101Z,15.43
2019-01-26T22:38:29.102Z,14.70
2019-01-26T22:41:00.213Z,16.20
2019-01-26T22:43:31.258Z,19.80
2019-01-26T22:46:02.294Z,15.17
2019-01-26T22:48:33.389Z,13.83
2019-01-26T22:51:05.456Z,11.23
2019-01-26T22:53:36.988Z,12.07
2019-01-26T22:56:10.104Z,11.37
2019-01-26T22:58:41.819Z,12.33
2019-01-26T23:01:20.146Z,13.70
2019-01-26T23:04:16.596Z,15.50
2019-01-26T23:07:11.045Z,14.93
2019-01-26T23:10:21.143Z,14.87
2019-01-26T23:13:24.830Z,13.20
2019-01-26T23:16:36.475Z,12.07
2019-01-26T23:19:44.209Z,11.00
2019-01-26T23:22:43.430Z,13.93
2019-01-26T23:25:39.522Z,12.97
2019-01-26T23:28:22.570Z,14.37
2019-01-26T23:31:15.264Z,11.90
2019-01-26T23:33:48.399Z,11.70
2019-01-26T23:36:19.506Z,10.27
2019-01-26T23:38:52.119Z,11.67
2019-01-26T23:41:23.462Z,10.80
2019-01-26T23:43:54.866Z,11.43
2019-01-26T23:46:25.898Z,10.27
2019-01-26T23:48:57.111Z,10.03
2019-01-26T23:51:28.139Z,9.47
2019-01-26T23:53:59.502Z,10.37
2019-01-26T23:56:30.633Z,9.47
2019-01-26T23:59:01.838Z,10.47
